sensor_id;sensor_type;location;lat;lon;timestamp;P1;durP1;ratioP1;P2;durP2;ratioP2
30149;SDS011;16962;48.646;9.026;2023-04-01T00:02:29;10.60;;;2.00;;
30149;SDS011;16962;48.646;9.026;2023-04-01T00:05:17;2.95;;;1.25;;
30149;SDS011;16962;48.646;9.026;2023-04-01T00:08:10;9.73;;;1.58;;
30149;SDS011;16962;48.646;9.026;2023-04-01T00:10:58;8.05;;;1.73;;
30149;SDS011;16962;48.646;9.026;2023-04-01T00:13:45;5.15;;;1.70;;
30149;SDS011;16962;48.646;9.026;2023-04-01T00:16:33;8.18;;;2.08;;
30149;SDS011;16962;48.646;9.026;2023-04-01T00:19:20;5.78;;;1.63;;
30149;SDS011;16962;48.646;9.026;2023-04-01T00:22:16;5.32;;;1.70;;
30149;SDS011;16962;48.646;9.026;2023-04-01T00:25:04;9.55;;;1.48;;
30149;SDS011;16962;48.646;9.026;2023-04-01T00:27:52;8.80;;;1.92;;
30149;SDS011;16962;48.646;9.026;2023-04-01T00:30:39;10.70;;;1.48;;
30149;SDS011;16962;48.646;9.026;2023-04-01T00:33:29;5.75;;;1.63;;
30149;SDS011;16962;48.646;9.026;2023-04-01T00:36:17;8.50;;;1.45;;
30149;SDS011;16962;48.646;9.026;2023-04-01T00:39:10;7.65;;;1.55;;
30149;SDS011;16962;48.646;9.026;2023-04-01T00:41:57;9.73;;;1.52;;
30149;SDS011;16962;48.646;9.026;2023-04-01T00:44:53;3.10;;;1.33;;
30149;SDS011;16962;48.646;9.026;2023-04-01T00:47:43;6.90;;;1.80;;
30149;SDS011;16962;48.646;9.026;2023-04-01T00:50:33;5.22;;;1.40;;
30149;SDS011;16962;48.646;9.026;2023-04-01T00:53:22;6.30;;;1.73;;
30149;SDS011;16962;48.646;9.026;2023-04-01T00:56:11;7.22;;;1.60;;
30149;SDS011;16962;48.646;9.026;2023-04-01T00:59:07;6.30;;;1.30;;
30149;SDS011;16962;48.646;9.026;2023-04-01T01:02:05;6.68;;;1.67;;
30149;SDS011;16962;48.646;9.026;2023-04-01T01:04:58;6.30;;;1.63;;
30149;SDS011;16962;48.646;9.026;2023-04-01T01:08:10;4.15;;;1.48;;
30149;SDS011;16962;48.646;9.026;2023-04-01T01:11:02;7.60;;;1.85;;
30149;SDS011;16962;48.646;9.026;2023-04-01T01:27:27;6.28;;;1.58;;
30149;SDS011;16962;48.646;9.026;2023-04-01T01:37:15;2.58;;;1.10;;
30149;SDS011;16962;48.646;9.026;2023-04-01T01:40:05;6.65;;;1.05;;
30149;SDS011;16962;48.646;9.026;2023-04-01T01:43:05;3.28;;;1.02;;
30149;SDS011;16962;48.646;9.026;2023-04-01T01:45:57;3.97;;;1.05;;
30149;SDS011;16962;48.646;9.026;2023-04-01T01:48:47;4.28;;;1.02;;
30149;SDS011;16962;48.646;9.026;2023-04-01T01:51:39;3.30;;;1.15;;
30149;SDS011;16962;48.646;9.026;2023-04-01T01:54:35;4.93;;;1.20;;
30149;SDS011;16962;48.646;9.026;2023-04-01T01:57:26;3.45;;;1.13;;
30149;SDS011;16962;48.646;9.026;2023-04-01T02:00:18;3.58;;;1.10;;
30149;SDS011;16962;48.646;9.026;2023-04-01T02:03:06;2.15;;;0.82;;
30149;SDS011;16962;48.646;9.026;2023-04-01T02:05:55;2.45;;;0.80;;
30149;SDS011;16962;48.646;9.026;2023-04-01T02:08:49;2.13;;;0.80;;
30149;SDS011;16962;48.646;9.026;2023-04-01T02:11:59;5.40;;;1.40;;
30149;SDS011;16962;48.646;9.026;2023-04-01T02:15:00;2.42;;;0.88;;
30149;SDS011;16962;48.646;9.026;2023-04-01T02:17:52;1.63;;;0.93;;
30149;SDS011;16962;48.646;9.026;2023-04-01T02:20:40;1.73;;;0.80;;
30149;SDS011;16962;48.646;9.026;2023-04-01T02:23:30;4.10;;;0.88;;
30149;SDS011;16962;48.646;9.026;2023-04-01T02:26:24;1.33;;;0.77;;
30149;SDS011;16962;48.646;9.026;2023-04-01T02:29:13;1.52;;;1.17;;
30149;SDS011;16962;48.646;9.026;2023-04-01T02:32:00;1.63;;;0.70;;
30149;SDS011;16962;48.646;9.026;2023-04-01T02:34:52;3.10;;;0.98;;
30149;SDS011;16962;48.646;9.026;2023-04-01T02:37:40;3.35;;;0.80;;
30149;SDS011;16962;48.646;9.026;2023-04-01T02:40:29;1.02;;;0.73;;
30149;SDS011;16962;48.646;9.026;2023-04-01T02:43:16;1.02;;;0.68;;
30149;SDS011;16962;48.646;9.026;2023-04-01T02:46:06;1.55;;;0.70;;
30149;SDS011;16962;48.646;9.026;2023-04-01T02:48:53;2.05;;;0.80;;
30149;SDS011;16962;48.646;9.026;2023-04-01T02:51:42;2.95;;;1.00;;
30149;SDS011;16962;48.646;9.026;2023-04-01T02:54:31;4.13;;;0.90;;
30149;SDS011;16962;48.646;9.026;2023-04-01T02:57:21;2.50;;;1.00;;
30149;SDS011;16962;48.646;9.026;2023-04-01T03:00:17;1.48;;;1.00;;
30149;SDS011;16962;48.646;9.026;2023-04-01T03:03:04;5.25;;;1.05;;
30149;SDS011;16962;48.646;9.026;2023-04-01T03:05:55;1.08;;;0.70;;
30149;SDS011;16962;48.646;9.026;2023-04-01T03:08:45;3.40;;;0.85;;
30149;SDS011;16962;48.646;9.026;2023-04-01T03:11:32;3.58;;;1.00;;
30149;SDS011;16962;48.646;9.026;2023-04-01T03:14:19;1.73;;;0.85;;
30149;SDS011;16962;48.646;9.026;2023-04-01T03:17:11;2.72;;;0.90;;
30149;SDS011;16962;48.646;9.026;2023-04-01T03:19:58;4.93;;;0.90;;
30149;SDS011;16962;48.646;9.026;2023-04-01T03:22:49;3.13;;;0.90;;
30149;SDS011;16962;48.646;9.026;2023-04-01T03:25:38;1.80;;;0.95;;
30149;SDS011;16962;48.646;9.026;2023-04-01T03:28:28;2.50;;;1.00;;
30149;SDS011;16962;48.646;9.026;2023-04-01T03:31:17;3.97;;;0.90;;
30149;SDS011;16962;48.646;9.026;2023-04-01T03:34:09;0.82;;;0.80;;
30149;SDS011;16962;48.646;9.026;2023-04-01T03:36:57;1.77;;;1.10;;
30149;SDS011;16962;48.646;9.026;2023-04-01T03:39:44;1.73;;;0.98;;
30149;SDS011;16962;48.646;9.026;2023-04-01T03:42:32;5.72;;;1.10;;
30149;SDS011;16962;48.646;9.026;2023-04-01T03:45:21;1.38;;;0.85;;
30149;SDS011;16962;48.646;9.026;2023-04-01T03:48:08;0.85;;;0.80;;
30149;SDS011;16962;48.646;9.026;2023-04-01T03:50:56;4.88;;;0.82;;
30149;SDS011;16962;48.646;9.026;2023-04-01T03:53:44;1.92;;;1.05;;
30149;SDS011;16962;48.646;9.026;2023-04-01T03:56:31;0.88;;;0.70;;
30149;SDS011;16962;48.646;9.026;2023-04-01T03:59:19;0.85;;;0.70;;
30149;SDS011;16962;48.646;9.026;2023-04-01T04:05:27;1.17;;;0.70;;
30149;SDS011;16962;48.646;9.026;2023-04-01T04:08:17;3.88;;;0.80;;
30149;SDS011;16962;48.646;9.026;2023-04-01T04:11:04;2.85;;;1.00;;
30149;SDS011;16962;48.646;9.026;2023-04-01T04:14:00;2.08;;;0.85;;
30149;SDS011;16962;48.646;9.026;2023-04-01T04:16:51;3.55;;;0.90;;
30149;SDS011;16962;48.646;9.026;2023-04-01T04:19:39;1.58;;;0.70;;
30149;SDS011;16962;48.646;9.026;2023-04-01T04:22:26;1.95;;;0.80;;
30149;SDS011;16962;48.646;9.026;2023-04-01T04:31:34;3.55;;;1.15;;
30149;SDS011;16962;48.646;9.026;2023-04-01T04:34:27;3.85;;;1.23;;
30149;SDS011;16962;48.646;9.026;2023-04-01T04:37:27;3.80;;;1.05;;
30149;SDS011;16962;48.646;9.026;2023-04-01T04:40:14;8.30;;;1.33;;
30149;SDS011;16962;48.646;9.026;2023-04-01T04:43:01;5.90;;;1.15;;
30149;SDS011;16962;48.646;9.026;2023-04-01T04:45:51;3.80;;;1.50;;
30149;SDS011;16962;48.646;9.026;2023-04-01T04:48:41;7.97;;;1.80;;
30149;SDS011;16962;48.646;9.026;2023-04-01T04:51:31;10.10;;;1.50;;
30149;SDS011;16962;48.646;9.026;2023-04-01T04:54:30;6.43;;;1.40;;
30149;SDS011;16962;48.646;9.026;2023-04-01T04:57:17;5.53;;;1.48;;
30149;SDS011;16962;48.646;9.026;2023-04-01T05:00:04;2.83;;;1.30;;
30149;SDS011;16962;48.646;9.026;2023-04-01T05:02:54;5.15;;;1.90;;
30149;SDS011;16962;48.646;9.026;2023-04-01T05:05:47;5.03;;;1.85;;
30149;SDS011;16962;48.646;9.026;2023-04-01T05:08:39;9.90;;;3.33;;
30149;SDS011;16962;48.646;9.026;2023-04-01T05:11:28;4.30;;;1.33;;
30149;SDS011;16962;48.646;9.026;2023-04-01T05:14:15;3.83;;;1.15;;
30149;SDS011;16962;48.646;9.026;2023-04-01T05:17:03;6.82;;;1.30;;
30149;SDS011;16962;48.646;9.026;2023-04-01T05:19:50;4.32;;;1.20;;
30149;SDS011;16962;48.646;9.026;2023-04-01T05:22:38;7.18;;;1.20;;
30149;SDS011;16962;48.646;9.026;2023-04-01T05:25:37;4.07;;;1.08;;
30149;SDS011;16962;48.646;9.026;2023-04-01T05:28:40;2.22;;;1.10;;
30149;SDS011;16962;48.646;9.026;2023-04-01T05:31:29;3.20;;;1.05;;
30149;SDS011;16962;48.646;9.026;2023-04-01T05:34:16;4.38;;;1.30;;
30149;SDS011;16962;48.646;9.026;2023-04-01T05:37:05;4.43;;;1.25;;
30149;SDS011;16962;48.646;9.026;2023-04-01T05:39:56;4.15;;;1.35;;
30149;SDS011;16962;48.646;9.026;2023-04-01T05:42:45;5.25;;;1.20;;
30149;SDS011;16962;48.646;9.026;2023-04-01T05:45:34;5.72;;;1.40;;
30149;SDS011;16962;48.646;9.026;2023-04-01T05:48:21;5.50;;;1.23;;
30149;SDS011;16962;48.646;9.026;2023-04-01T05:51:15;4.55;;;1.60;;
30149;SDS011;16962;48.646;9.026;2023-04-01T05:54:04;5.97;;;1.65;;
30149;SDS011;16962;48.646;9.026;2023-04-01T05:56:52;5.03;;;1.40;;
30149;SDS011;16962;48.646;9.026;2023-04-01T05:59:42;7.78;;;1.63;;
30149;SDS011;16962;48.646;9.026;2023-04-01T06:02:29;2.08;;;1.15;;
30149;SDS011;16962;48.646;9.026;2023-04-01T06:05:29;3.83;;;1.20;;
30149;SDS011;16962;48.646;9.026;2023-04-01T06:08:25;6.65;;;2.03;;
30149;SDS011;16962;48.646;9.026;2023-04-01T06:11:16;3.08;;;1.35;;
30149;SDS011;16962;48.646;9.026;2023-04-01T06:14:26;5.97;;;1.45;;
30149;SDS011;16962;48.646;9.026;2023-04-01T06:17:26;3.08;;;1.00;;
30149;SDS011;16962;48.646;9.026;2023-04-01T06:26:39;3.65;;;1.05;;
30149;SDS011;16962;48.646;9.026;2023-04-01T06:29:57;2.58;;;1.00;;
30149;SDS011;16962;48.646;9.026;2023-04-01T06:36:39;3.08;;;1.73;;
30149;SDS011;16962;48.646;9.026;2023-04-01T06:43:29;5.15;;;1.48;;
30149;SDS011;16962;48.646;9.026;2023-04-01T06:55:02;4.13;;;1.20;;
30149;SDS011;16962;48.646;9.026;2023-04-01T06:58:11;5.40;;;1.20;;
30149;SDS011;16962;48.646;9.026;2023-04-01T07:01:16;3.35;;;0.90;;
30149;SDS011;16962;48.646;9.026;2023-04-01T07:04:15;1.70;;;1.02;;
30149;SDS011;16962;48.646;9.026;2023-04-01T07:07:19;1.92;;;1.08;;
30149;SDS011;16962;48.646;9.026;2023-04-01T07:16:32;1.10;;;0.80;;
30149;SDS011;16962;48.646;9.026;2023-04-01T07:19:36;4.13;;;1.20;;
30149;SDS011;16962;48.646;9.026;2023-04-01T07:25:26;4.32;;;1.10;;
30149;SDS011;16962;48.646;9.026;2023-04-01T07:28:21;4.88;;;1.20;;
30149;SDS011;16962;48.646;9.026;2023-04-01T07:31:14;5.57;;;1.05;;
30149;SDS011;16962;48.646;9.026;2023-04-01T07:37:14;1.90;;;1.15;;
30149;SDS011;16962;48.646;9.026;2023-04-01T07:47:40;3.30;;;1.00;;
30149;SDS011;16962;48.646;9.026;2023-04-01T07:53:52;2.40;;;1.00;;
30149;SDS011;16962;48.646;9.026;2023-04-01T08:00:26;4.45;;;1.35;;
30149;SDS011;16962;48.646;9.026;2023-04-01T08:06:40;2.40;;;1.15;;
30149;SDS011;16962;48.646;9.026;2023-04-01T08:09:58;3.35;;;0.90;;
30149;SDS011;16962;48.646;9.026;2023-04-01T08:15:59;3.13;;;1.25;;
30149;SDS011;16962;48.646;9.026;2023-04-01T08:21:51;1.33;;;1.08;;
30149;SDS011;16962;48.646;9.026;2023-04-01T08:24:45;4.25;;;1.83;;
30149;SDS011;16962;48.646;9.026;2023-04-01T08:27:39;6.40;;;1.55;;
30149;SDS011;16962;48.646;9.026;2023-04-01T08:33:53;3.13;;;0.93;;
30149;SDS011;16962;48.646;9.026;2023-04-01T08:36:46;5.07;;;1.10;;
30149;SDS011;16962;48.646;9.026;2023-04-01T08:39:44;2.35;;;1.08;;
30149;SDS011;16962;48.646;9.026;2023-04-01T08:48:59;4.32;;;1.20;;
30149;SDS011;16962;48.646;9.026;2023-04-01T08:52:10;3.83;;;1.08;;
30149;SDS011;16962;48.646;9.026;2023-04-01T09:18:07;2.28;;;1.55;;
30149;SDS011;16962;48.646;9.026;2023-04-01T09:21:21;1.50;;;1.00;;
30149;SDS011;16962;48.646;9.026;2023-04-01T09:24:23;3.72;;;1.00;;
30149;SDS011;16962;48.646;9.026;2023-04-01T09:27:28;1.65;;;1.05;;
30149;SDS011;16962;48.646;9.026;2023-04-01T09:30:25;2.80;;;1.02;;
30149;SDS011;16962;48.646;9.026;2023-04-01T09:39:47;3.30;;;0.95;;
30149;SDS011;16962;48.646;9.026;2023-04-01T09:42:44;2.15;;;0.80;;
30149;SDS011;16962;48.646;9.026;2023-04-01T09:54:27;2.25;;;0.80;;
30149;SDS011;16962;48.646;9.026;2023-04-01T10:00:46;2.03;;;0.80;;
30149;SDS011;16962;48.646;9.026;2023-04-01T10:13:20;0.80;;;0.80;;
30149;SDS011;16962;48.646;9.026;2023-04-01T11:25:48;1.05;;;0.70;;
30149;SDS011;16962;48.646;9.026;2023-04-01T11:39:00;0.88;;;0.82;;
30149;SDS011;16962;48.646;9.026;2023-04-01T11:42:24;0.68;;;0.60;;
30149;SDS011;16962;48.646;9.026;2023-04-01T11:45:49;0.50;;;0.50;;
30149;SDS011;16962;48.646;9.026;2023-04-01T11:48:56;0.50;;;0.50;;
30149;SDS011;16962;48.646;9.026;2023-04-01T11:56:10;2.70;;;0.60;;
30149;SDS011;16962;48.646;9.026;2023-04-01T12:05:36;0.50;;;0.50;;
30149;SDS011;16962;48.646;9.026;2023-04-01T12:08:46;0.50;;;0.50;;
30149;SDS011;16962;48.646;9.026;2023-04-01T12:12:11;1.13;;;0.55;;
30149;SDS011;16962;48.646;9.026;2023-04-01T12:18:43;0.57;;;0.50;;
30149;SDS011;16962;48.646;9.026;2023-04-01T12:21:52;1.17;;;0.77;;
30149;SDS011;16962;48.646;9.026;2023-04-01T12:24:53;0.60;;;0.60;;
30149;SDS011;16962;48.646;9.026;2023-04-01T12:31:06;0.70;;;0.70;;
30149;SDS011;16962;48.646;9.026;2023-04-01T12:37:16;0.52;;;0.50;;
30149;SDS011;16962;48.646;9.026;2023-04-01T12:40:31;0.70;;;0.70;;
30149;SDS011;16962;48.646;9.026;2023-04-01T13:06:10;0.40;;;0.40;;
30149;SDS011;16962;48.646;9.026;2023-04-01T13:09:28;0.40;;;0.40;;
30149;SDS011;16962;48.646;9.026;2023-04-01T13:25:44;0.40;;;0.40;;
30149;SDS011;16962;48.646;9.026;2023-04-01T13:30:04;0.50;;;0.50;;
30149;SDS011;16962;48.646;9.026;2023-04-01T14:01:06;1.38;;;0.52;;
30149;SDS011;16962;48.646;9.026;2023-04-01T14:13:34;0.60;;;0.60;;
30149;SDS011;16962;48.646;9.026;2023-04-01T14:35:49;0.50;;;0.50;;
30149;SDS011;16962;48.646;9.026;2023-04-01T14:38:53;0.50;;;0.50;;
30149;SDS011;16962;48.646;9.026;2023-04-01T14:49:01;0.85;;;0.60;;
30149;SDS011;16962;48.646;9.026;2023-04-01T14:55:34;0.70;;;0.70;;
30149;SDS011;16962;48.646;9.026;2023-04-01T14:58:43;0.50;;;0.50;;
30149;SDS011;16962;48.646;9.026;2023-04-01T15:04:49;0.50;;;0.50;;
30149;SDS011;16962;48.646;9.026;2023-04-01T15:08:11;0.50;;;0.50;;
30149;SDS011;16962;48.646;9.026;2023-04-01T15:14:31;1.33;;;0.60;;
30149;SDS011;16962;48.646;9.026;2023-04-01T15:17:44;0.60;;;0.60;;
30149;SDS011;16962;48.646;9.026;2023-04-01T15:20:46;0.93;;;0.60;;
30149;SDS011;16962;48.646;9.026;2023-04-01T15:27:39;1.15;;;0.80;;
30149;SDS011;16962;48.646;9.026;2023-04-01T15:33:48;2.47;;;1.70;;
30149;SDS011;16962;48.646;9.026;2023-04-01T15:36:59;1.30;;;0.70;;
30149;SDS011;16962;48.646;9.026;2023-04-01T15:40:24;0.98;;;0.77;;
30149;SDS011;16962;48.646;9.026;2023-04-01T15:52:21;1.73;;;1.00;;
30149;SDS011;16962;48.646;9.026;2023-04-01T15:55:59;1.13;;;1.02;;
30149;SDS011;16962;48.646;9.026;2023-04-01T16:11:53;4.47;;;2.90;;
30149;SDS011;16962;48.646;9.026;2023-04-01T16:14:55;3.83;;;1.40;;
30149;SDS011;16962;48.646;9.026;2023-04-01T16:24:17;3.67;;;2.75;;
30149;SDS011;16962;48.646;9.026;2023-04-01T16:27:12;5.07;;;3.38;;
30149;SDS011;16962;48.646;9.026;2023-04-01T16:30:23;3.20;;;1.75;;
30149;SDS011;16962;48.646;9.026;2023-04-01T16:36:48;5.50;;;1.73;;
30149;SDS011;16962;48.646;9.026;2023-04-01T16:56:23;2.95;;;1.73;;
30149;SDS011;16962;48.646;9.026;2023-04-01T16:59:19;2.72;;;1.60;;
30149;SDS011;16962;48.646;9.026;2023-04-01T17:02:20;2.53;;;1.52;;
30149;SDS011;16962;48.646;9.026;2023-04-01T17:05:14;4.07;;;1.30;;
30149;SDS011;16962;48.646;9.026;2023-04-01T17:11:28;4.60;;;1.30;;
30149;SDS011;16962;48.646;9.026;2023-04-01T17:43:24;4.75;;;1.70;;
30149;SDS011;16962;48.646;9.026;2023-04-01T18:00:14;3.35;;;2.20;;
30149;SDS011;16962;48.646;9.026;2023-04-01T18:03:51;4.53;;;1.98;;
30149;SDS011;16962;48.646;9.026;2023-04-01T18:19:39;4.07;;;1.67;;
30149;SDS011;16962;48.646;9.026;2023-04-01T18:25:36;1.83;;;1.30;;
30149;SDS011;16962;48.646;9.026;2023-04-01T18:31:22;3.42;;;1.23;;
30149;SDS011;16962;48.646;9.026;2023-04-01T18:34:19;1.50;;;0.90;;
30149;SDS011;16962;48.646;9.026;2023-04-01T18:37:19;1.38;;;1.08;;
30149;SDS011;16962;48.646;9.026;2023-04-01T18:44:03;1.10;;;1.00;;
30149;SDS011;16962;48.646;9.026;2023-04-01T18:47:13;1.90;;;1.35;;
30149;SDS011;16962;48.646;9.026;2023-04-01T18:59:08;3.55;;;1.40;;
30149;SDS011;16962;48.646;9.026;2023-04-01T19:05:14;5.40;;;1.50;;
30149;SDS011;16962;48.646;9.026;2023-04-01T19:11:26;6.13;;;2.28;;
30149;SDS011;16962;48.646;9.026;2023-04-01T19:21:03;2.42;;;1.88;;
30149;SDS011;16962;48.646;9.026;2023-04-01T19:27:14;3.30;;;1.95;;
30149;SDS011;16962;48.646;9.026;2023-04-01T19:45:29;4.70;;;2.28;;
30149;SDS011;16962;48.646;9.026;2023-04-01T19:57:55;3.53;;;2.60;;
30149;SDS011;16962;48.646;9.026;2023-04-01T20:01:17;4.93;;;3.50;;
30149;SDS011;16962;48.646;9.026;2023-04-01T20:04:36;6.05;;;3.85;;
30149;SDS011;16962;48.646;9.026;2023-04-01T20:07:41;4.03;;;1.98;;
30149;SDS011;16962;48.646;9.026;2023-04-01T20:20:15;2.28;;;2.05;;
30149;SDS011;16962;48.646;9.026;2023-04-01T20:25:59;4.72;;;3.13;;
30149;SDS011;16962;48.646;9.026;2023-04-01T20:39:47;4.63;;;2.58;;
30149;SDS011;16962;48.646;9.026;2023-04-01T20:51:15;6.43;;;2.92;;
30149;SDS011;16962;48.646;9.026;2023-04-01T20:54:22;5.45;;;2.78;;
30149;SDS011;16962;48.646;9.026;2023-04-01T21:09:34;3.80;;;2.55;;
30149;SDS011;16962;48.646;9.026;2023-04-01T21:15:47;3.67;;;2.85;;
30149;SDS011;16962;48.646;9.026;2023-04-01T21:21:46;3.50;;;1.70;;
30149;SDS011;16962;48.646;9.026;2023-04-01T22:11:46;3.22;;;1.50;;
30149;SDS011;16962;48.646;9.026;2023-04-01T22:17:47;2.88;;;1.58;;
30149;SDS011;16962;48.646;9.026;2023-04-01T22:39:17;3.55;;;1.30;;
30149;SDS011;16962;48.646;9.026;2023-04-01T22:45:29;2.90;;;1.48;;
30149;SDS011;16962;48.646;9.026;2023-04-01T22:48:42;2.95;;;1.60;;
30149;SDS011;16962;48.646;9.026;2023-04-01T22:54:43;1.50;;;1.13;;
30149;SDS011;16962;48.646;9.026;2023-04-01T22:57:48;2.03;;;1.30;;
30149;SDS011;16962;48.646;9.026;2023-04-01T23:00:42;1.80;;;1.38;;
30149;SDS011;16962;48.646;9.026;2023-04-01T23:03:59;1.20;;;1.10;;
30149;SDS011;16962;48.646;9.026;2023-04-01T23:06:52;1.25;;;1.10;;
30149;SDS011;16962;48.646;9.026;2023-04-01T23:09:44;2.88;;;1.20;;
30149;SDS011;16962;48.646;9.026;2023-04-01T23:12:33;1.20;;;1.10;;
30149;SDS011;16962;48.646;9.026;2023-04-01T23:15:21;3.63;;;1.20;;
30149;SDS011;16962;48.646;9.026;2023-04-01T23:21:18;2.20;;;1.60;;
30149;SDS011;16962;48.646;9.026;2023-04-01T23:29:53;1.30;;;1.10;;
30149;SDS011;16962;48.646;9.026;2023-04-01T23:32:41;1.83;;;1.13;;
30149;SDS011;16962;48.646;9.026;2023-04-01T23:35:31;1.45;;;1.15;;
30149;SDS011;16962;48.646;9.026;2023-04-01T23:38:20;1.10;;;1.10;;
30149;SDS011;16962;48.646;9.026;2023-04-01T23:41:22;1.25;;;1.15;;
30149;SDS011;16962;48.646;9.026;2023-04-01T23:44:12;3.17;;;1.50;;
30149;SDS011;16962;48.646;9.026;2023-04-01T23:47:02;3.30;;;1.40;;
30149;SDS011;16962;48.646;9.026;2023-04-01T23:49:58;2.17;;;1.10;;
30149;SDS011;16962;48.646;9.026;2023-04-01T23:53:33;1.30;;;1.10;;
30149;SDS011;16962;48.646;9.026;2023-04-01T23:56:09;1.33;;;1.20;;
30149;SDS011;16962;48.646;9.026;2023-04-01T23:58:59;1.17;;;1.08;;
